sensor_id;sensor_type;location;lat;lon;timestamp;P1;durP1;ratioP1;P2;durP2;ratioP2
5054;SDS011;13829;48.990;8.346;2023-07-20T00:01:33;2.58;;;1.85;;
5054;SDS011;13829;48.990;8.346;2023-07-20T00:04:00;4.65;;;2.25;;
5054;SDS011;13829;48.990;8.346;2023-07-20T00:06:27;1.85;;;1.63;;
5054;SDS011;13829;48.990;8.346;2023-07-20T00:08:54;3.88;;;2.05;;
5054;SDS011;13829;48.990;8.346;2023-07-20T00:11:25;4.25;;;2.15;;
5054;SDS011;13829;48.990;8.346;2023-07-20T00:13:53;6.10;;;2.30;;
5054;SDS011;13829;48.990;8.346;2023-07-20T00:16:20;3.42;;;2.00;;
5054;SDS011;13829;48.990;8.346;2023-07-20T00:18:48;3.85;;;1.90;;
5054;SDS011;13829;48.990;8.346;2023-07-20T00:21:15;2.97;;;1.90;;
5054;SDS011;13829;48.990;8.346;2023-07-20T00:23:42;4.32;;;2.03;;
5054;SDS011;13829;48.990;8.346;2023-07-20T00:26:09;5.22;;;2.25;;
5054;SDS011;13829;48.990;8.346;2023-07-20T00:28:36;3.17;;;2.20;;
5054;SDS011;13829;48.990;8.346;2023-07-20T00:31:03;3.25;;;2.28;;
5054;SDS011;13829;48.990;8.346;2023-07-20T00:33:31;3.72;;;2.00;;
5054;SDS011;13829;48.990;8.346;2023-07-20T00:35:59;2.70;;;2.20;;
5054;SDS011;13829;48.990;8.346;2023-07-20T00:38:26;4.00;;;2.00;;
5054;SDS011;13829;48.990;8.346;2023-07-20T00:40:53;2.58;;;2.08;;
5054;SDS011;13829;48.990;8.346;2023-07-20T00:43:20;4.60;;;2.10;;
5054;SDS011;13829;48.990;8.346;2023-07-20T00:45:47;2.30;;;2.00;;
5054;SDS011;13829;48.990;8.346;2023-07-20T00:48:14;3.70;;;2.08;;
5054;SDS011;13829;48.990;8.346;2023-07-20T00:50:41;4.13;;;1.92;;
5054;SDS011;13829;48.990;8.346;2023-07-20T00:53:11;4.05;;;2.63;;
5054;SDS011;13829;48.990;8.346;2023-07-20T00:55:38;3.80;;;2.47;;
5054;SDS011;13829;48.990;8.346;2023-07-20T00:58:05;5.53;;;2.35;;
5054;SDS011;13829;48.990;8.346;2023-07-20T01:00:32;5.65;;;2.58;;
5054;SDS011;13829;48.990;8.346;2023-07-20T01:02:59;2.42;;;2.20;;
5054;SDS011;13829;48.990;8.346;2023-07-20T01:05:28;5.15;;;2.28;;
5054;SDS011;13829;48.990;8.346;2023-07-20T01:08:07;3.22;;;2.22;;
5054;SDS011;13829;48.990;8.346;2023-07-20T01:10:53;5.38;;;2.47;;
5054;SDS011;13829;48.990;8.346;2023-07-20T01:13:25;3.25;;;2.20;;
5054;SDS011;13829;48.990;8.346;2023-07-20T01:15:56;3.88;;;2.83;;
5054;SDS011;13829;48.990;8.346;2023-07-20T01:18:24;4.78;;;2.72;;
5054;SDS011;13829;48.990;8.346;2023-07-20T01:20:51;4.32;;;2.60;;
5054;SDS011;13829;48.990;8.346;2023-07-20T01:23:35;4.27;;;2.87;;
5054;SDS011;13829;48.990;8.346;2023-07-20T01:26:38;3.97;;;2.90;;
5054;SDS011;13829;48.990;8.346;2023-07-20T01:29:43;5.67;;;2.83;;
5054;SDS011;13829;48.990;8.346;2023-07-20T01:32:40;3.17;;;2.80;;
5054;SDS011;13829;48.990;8.346;2023-07-20T01:35:10;5.87;;;2.73;;
5054;SDS011;13829;48.990;8.346;2023-07-20T01:37:42;3.70;;;2.90;;
5054;SDS011;13829;48.990;8.346;2023-07-20T01:40:12;2.60;;;2.40;;
5054;SDS011;13829;48.990;8.346;2023-07-20T01:42:43;5.53;;;3.17;;
5054;SDS011;13829;48.990;8.346;2023-07-20T01:45:12;5.87;;;2.60;;
5054;SDS011;13829;48.990;8.346;2023-07-20T01:47:40;3.00;;;2.40;;
5054;SDS011;13829;48.990;8.346;2023-07-20T01:50:07;3.97;;;2.67;;
5054;SDS011;13829;48.990;8.346;2023-07-20T01:52:35;5.17;;;2.67;;
5054;SDS011;13829;48.990;8.346;2023-07-20T01:55:02;4.70;;;2.80;;
5054;SDS011;13829;48.990;8.346;2023-07-20T01:57:30;2.83;;;2.43;;
5054;SDS011;13829;48.990;8.346;2023-07-20T01:59:57;4.10;;;2.77;;
5054;SDS011;13829;48.990;8.346;2023-07-20T02:02:26;2.90;;;2.70;;
5054;SDS011;13829;48.990;8.346;2023-07-20T02:04:55;3.90;;;2.70;;
5054;SDS011;13829;48.990;8.346;2023-07-20T02:07:22;4.13;;;2.90;;
5054;SDS011;13829;48.990;8.346;2023-07-20T02:09:49;3.20;;;2.90;;
5054;SDS011;13829;48.990;8.346;2023-07-20T02:12:16;3.47;;;3.10;;
5054;SDS011;13829;48.990;8.346;2023-07-20T02:14:43;4.93;;;2.70;;
5054;SDS011;13829;48.990;8.346;2023-07-20T02:17:10;3.53;;;2.27;;
5054;SDS011;13829;48.990;8.346;2023-07-20T02:19:37;4.83;;;2.40;;
5054;SDS011;13829;48.990;8.346;2023-07-20T02:22:05;4.23;;;2.50;;
5054;SDS011;13829;48.990;8.346;2023-07-20T02:24:32;4.63;;;3.03;;
5054;SDS011;13829;48.990;8.346;2023-07-20T02:26:59;5.07;;;2.63;;
5054;SDS011;13829;48.990;8.346;2023-07-20T02:29:26;3.57;;;2.83;;
5054;SDS011;13829;48.990;8.346;2023-07-20T02:31:53;4.87;;;2.77;;
5054;SDS011;13829;48.990;8.346;2023-07-20T02:34:20;6.73;;;3.00;;
5054;SDS011;13829;48.990;8.346;2023-07-20T02:36:47;5.40;;;2.70;;
5054;SDS011;13829;48.990;8.346;2023-07-20T02:39:15;3.47;;;2.57;;
5054;SDS011;13829;48.990;8.346;2023-07-20T02:41:42;5.53;;;2.63;;
5054;SDS011;13829;48.990;8.346;2023-07-20T02:44:09;4.40;;;2.90;;
5054;SDS011;13829;48.990;8.346;2023-07-20T02:46:36;3.47;;;2.60;;
5054;SDS011;13829;48.990;8.346;2023-07-20T02:49:03;6.30;;;3.00;;
5054;SDS011;13829;48.990;8.346;2023-07-20T02:51:30;5.27;;;3.17;;
5054;SDS011;13829;48.990;8.346;2023-07-20T02:53:57;3.83;;;2.93;;
5054;SDS011;13829;48.990;8.346;2023-07-20T02:56:26;4.57;;;3.00;;
5054;SDS011;13829;48.990;8.346;2023-07-20T02:58:53;5.20;;;3.20;;
5054;SDS011;13829;48.990;8.346;2023-07-20T03:01:20;4.47;;;2.77;;
5054;SDS011;13829;48.990;8.346;2023-07-20T03:03:48;3.17;;;2.87;;
5054;SDS011;13829;48.990;8.346;2023-07-20T03:06:15;3.13;;;2.83;;
5054;SDS011;13829;48.990;8.346;2023-07-20T03:08:43;3.50;;;3.00;;
5054;SDS011;13829;48.990;8.346;2023-07-20T03:11:12;3.30;;;3.00;;
5054;SDS011;13829;48.990;8.346;2023-07-20T03:13:41;4.87;;;3.20;;
5054;SDS011;13829;48.990;8.346;2023-07-20T03:16:08;4.77;;;2.93;;
5054;SDS011;13829;48.990;8.346;2023-07-20T03:18:37;3.67;;;3.27;;
5054;SDS011;13829;48.990;8.346;2023-07-20T03:21:04;3.30;;;2.70;;
5054;SDS011;13829;48.990;8.346;2023-07-20T03:23:32;5.37;;;3.03;;
5054;SDS011;13829;48.990;8.346;2023-07-20T03:25:59;4.33;;;2.70;;
5054;SDS011;13829;48.990;8.346;2023-07-20T03:28:27;3.90;;;2.70;;
5054;SDS011;13829;48.990;8.346;2023-07-20T03:30:55;4.90;;;3.00;;
5054;SDS011;13829;48.990;8.346;2023-07-20T03:33:24;5.80;;;3.10;;
5054;SDS011;13829;48.990;8.346;2023-07-20T03:35:53;7.33;;;3.63;;
5054;SDS011;13829;48.990;8.346;2023-07-20T03:38:20;5.90;;;3.33;;
5054;SDS011;13829;48.990;8.346;2023-07-20T03:40:50;4.37;;;3.40;;
5054;SDS011;13829;48.990;8.346;2023-07-20T03:43:18;5.63;;;3.40;;
5054;SDS011;13829;48.990;8.346;2023-07-20T03:45:45;4.57;;;3.57;;
5054;SDS011;13829;48.990;8.346;2023-07-20T03:48:15;4.97;;;3.30;;
5054;SDS011;13829;48.990;8.346;2023-07-20T03:50:43;5.50;;;3.93;;
5054;SDS011;13829;48.990;8.346;2023-07-20T03:53:11;4.30;;;3.33;;
5054;SDS011;13829;48.990;8.346;2023-07-20T03:55:38;7.33;;;3.80;;
5054;SDS011;13829;48.990;8.346;2023-07-20T03:58:05;4.87;;;3.93;;
5054;SDS011;13829;48.990;8.346;2023-07-20T04:00:32;5.30;;;3.80;;
5054;SDS011;13829;48.990;8.346;2023-07-20T04:03:00;7.13;;;4.27;;
5054;SDS011;13829;48.990;8.346;2023-07-20T04:05:28;5.10;;;4.13;;
5054;SDS011;13829;48.990;8.346;2023-07-20T04:07:55;8.00;;;4.63;;
5054;SDS011;13829;48.990;8.346;2023-07-20T04:10:22;6.07;;;3.40;;
5054;SDS011;13829;48.990;8.346;2023-07-20T04:12:49;6.63;;;3.70;;
5054;SDS011;13829;48.990;8.346;2023-07-20T04:15:16;5.63;;;3.67;;
5054;SDS011;13829;48.990;8.346;2023-07-20T04:17:44;5.43;;;3.63;;
5054;SDS011;13829;48.990;8.346;2023-07-20T04:20:11;3.90;;;3.43;;
5054;SDS011;13829;48.990;8.346;2023-07-20T04:22:40;6.03;;;3.60;;
5054;SDS011;13829;48.990;8.346;2023-07-20T04:25:07;5.57;;;3.33;;
5054;SDS011;13829;48.990;8.346;2023-07-20T04:27:34;6.23;;;3.40;;
5054;SDS011;13829;48.990;8.346;2023-07-20T04:30:02;6.57;;;3.67;;
5054;SDS011;13829;48.990;8.346;2023-07-20T04:32:30;5.80;;;3.57;;
5054;SDS011;13829;48.990;8.346;2023-07-20T04:34:58;5.13;;;3.20;;
5054;SDS011;13829;48.990;8.346;2023-07-20T04:37:25;6.37;;;3.50;;
5054;SDS011;13829;48.990;8.346;2023-07-20T04:39:54;4.20;;;3.50;;
5054;SDS011;13829;48.990;8.346;2023-07-20T04:42:20;8.00;;;3.17;;
5054;SDS011;13829;48.990;8.346;2023-07-20T04:44:47;6.10;;;3.60;;
5054;SDS011;13829;48.990;8.346;2023-07-20T04:47:14;4.93;;;3.77;;
5054;SDS011;13829;48.990;8.346;2023-07-20T04:49:41;8.53;;;3.73;;
5054;SDS011;13829;48.990;8.346;2023-07-20T04:52:08;8.53;;;4.20;;
5054;SDS011;13829;48.990;8.346;2023-07-20T04:54:36;7.97;;;3.57;;
5054;SDS011;13829;48.990;8.346;2023-07-20T04:57:04;5.40;;;3.87;;
5054;SDS011;13829;48.990;8.346;2023-07-20T04:59:37;5.87;;;4.13;;
5054;SDS011;13829;48.990;8.346;2023-07-20T05:02:04;8.73;;;4.73;;
5054;SDS011;13829;48.990;8.346;2023-07-20T05:04:31;6.97;;;3.60;;
5054;SDS011;13829;48.990;8.346;2023-07-20T05:06:58;5.63;;;3.73;;
5054;SDS011;13829;48.990;8.346;2023-07-20T05:09:25;6.63;;;3.80;;
5054;SDS011;13829;48.990;8.346;2023-07-20T05:11:52;3.65;;;3.28;;
5054;SDS011;13829;48.990;8.346;2023-07-20T05:14:20;9.03;;;3.57;;
5054;SDS011;13829;48.990;8.346;2023-07-20T05:16:47;3.93;;;3.53;;
5054;SDS011;13829;48.990;8.346;2023-07-20T05:19:14;4.50;;;3.20;;
5054;SDS011;13829;48.990;8.346;2023-07-20T05:21:41;5.47;;;3.33;;
5054;SDS011;13829;48.990;8.346;2023-07-20T05:24:08;5.10;;;3.42;;
5054;SDS011;13829;48.990;8.346;2023-07-20T05:26:34;6.13;;;4.00;;
5054;SDS011;13829;48.990;8.346;2023-07-20T05:29:03;7.78;;;3.72;;
5054;SDS011;13829;48.990;8.346;2023-07-20T05:31:31;5.45;;;4.00;;
5054;SDS011;13829;48.990;8.346;2023-07-20T05:33:58;5.15;;;3.03;;
5054;SDS011;13829;48.990;8.346;2023-07-20T05:36:25;6.47;;;4.35;;
5054;SDS011;13829;48.990;8.346;2023-07-20T05:38:52;6.97;;;4.00;;
5054;SDS011;13829;48.990;8.346;2023-07-20T05:41:19;5.80;;;3.85;;
5054;SDS011;13829;48.990;8.346;2023-07-20T05:43:47;5.55;;;3.00;;
5054;SDS011;13829;48.990;8.346;2023-07-20T05:46:14;9.27;;;3.58;;
5054;SDS011;13829;48.990;8.346;2023-07-20T05:48:42;5.60;;;3.50;;
5054;SDS011;13829;48.990;8.346;2023-07-20T05:51:09;7.25;;;4.10;;
5054;SDS011;13829;48.990;8.346;2023-07-20T05:53:36;5.30;;;3.85;;
5054;SDS011;13829;48.990;8.346;2023-07-20T05:56:03;6.75;;;3.75;;
5054;SDS011;13829;48.990;8.346;2023-07-20T05:58:31;5.82;;;3.53;;
5054;SDS011;13829;48.990;8.346;2023-07-20T06:00:58;4.15;;;3.42;;
5054;SDS011;13829;48.990;8.346;2023-07-20T06:03:25;6.35;;;3.85;;
5054;SDS011;13829;48.990;8.346;2023-07-20T06:05:57;6.07;;;3.45;;
5054;SDS011;13829;48.990;8.346;2023-07-20T06:08:25;10.02;;;3.53;;
5054;SDS011;13829;48.990;8.346;2023-07-20T06:10:53;9.30;;;3.53;;
5054;SDS011;13829;48.990;8.346;2023-07-20T06:13:19;7.60;;;3.30;;
5054;SDS011;13829;48.990;8.346;2023-07-20T06:15:47;8.18;;;3.67;;
5054;SDS011;13829;48.990;8.346;2023-07-20T06:18:14;5.90;;;3.08;;
5054;SDS011;13829;48.990;8.346;2023-07-20T06:20:41;5.43;;;2.95;;
5054;SDS011;13829;48.990;8.346;2023-07-20T06:23:09;6.57;;;3.13;;
5054;SDS011;13829;48.990;8.346;2023-07-20T06:25:36;11.60;;;3.50;;
5054;SDS011;13829;48.990;8.346;2023-07-20T06:28:03;7.10;;;3.63;;
5054;SDS011;13829;48.990;8.346;2023-07-20T06:30:31;4.65;;;3.33;;
5054;SDS011;13829;48.990;8.346;2023-07-20T06:33:00;5.75;;;3.35;;
5054;SDS011;13829;48.990;8.346;2023-07-20T06:35:27;7.57;;;2.92;;
5054;SDS011;13829;48.990;8.346;2023-07-20T06:37:54;5.28;;;2.85;;
5054;SDS011;13829;48.990;8.346;2023-07-20T06:40:22;7.20;;;2.97;;
5054;SDS011;13829;48.990;8.346;2023-07-20T06:42:49;5.65;;;3.13;;
5054;SDS011;13829;48.990;8.346;2023-07-20T06:45:16;6.90;;;3.67;;
5054;SDS011;13829;48.990;8.346;2023-07-20T06:47:43;6.25;;;3.00;;
5054;SDS011;13829;48.990;8.346;2023-07-20T06:50:10;9.23;;;3.17;;
5054;SDS011;13829;48.990;8.346;2023-07-20T06:52:37;6.47;;;3.20;;
5054;SDS011;13829;48.990;8.346;2023-07-20T06:55:05;6.43;;;2.45;;
5054;SDS011;13829;48.990;8.346;2023-07-20T06:57:35;4.78;;;2.70;;
5054;SDS011;13829;48.990;8.346;2023-07-20T07:00:01;5.45;;;2.92;;
5054;SDS011;13829;48.990;8.346;2023-07-20T07:02:31;6.13;;;2.97;;
5054;SDS011;13829;48.990;8.346;2023-07-20T07:04:59;5.47;;;3.20;;
5054;SDS011;13829;48.990;8.346;2023-07-20T07:07:26;5.57;;;2.80;;
5054;SDS011;13829;48.990;8.346;2023-07-20T07:09:53;9.45;;;3.25;;
5054;SDS011;13829;48.990;8.346;2023-07-20T07:12:20;4.05;;;2.63;;
5054;SDS011;13829;48.990;8.346;2023-07-20T07:14:49;5.47;;;2.70;;
5054;SDS011;13829;48.990;8.346;2023-07-20T07:17:16;5.90;;;3.08;;
5054;SDS011;13829;48.990;8.346;2023-07-20T07:19:43;5.90;;;2.95;;
5054;SDS011;13829;48.990;8.346;2023-07-20T07:22:10;4.45;;;2.83;;
5054;SDS011;13829;48.990;8.346;2023-07-20T07:24:38;4.18;;;2.80;;
5054;SDS011;13829;48.990;8.346;2023-07-20T07:27:07;12.20;;;3.65;;
5054;SDS011;13829;48.990;8.346;2023-07-20T07:29:35;5.43;;;3.08;;
5054;SDS011;13829;48.990;8.346;2023-07-20T07:32:03;5.35;;;2.38;;
5054;SDS011;13829;48.990;8.346;2023-07-20T07:34:32;3.95;;;2.67;;
5054;SDS011;13829;48.990;8.346;2023-07-20T07:36:59;3.83;;;2.50;;
5054;SDS011;13829;48.990;8.346;2023-07-20T07:39:26;7.22;;;3.05;;
5054;SDS011;13829;48.990;8.346;2023-07-20T07:41:55;6.20;;;2.50;;
5054;SDS011;13829;48.990;8.346;2023-07-20T07:44:22;3.75;;;2.55;;
5054;SDS011;13829;48.990;8.346;2023-07-20T07:46:49;7.97;;;2.80;;
5054;SDS011;13829;48.990;8.346;2023-07-20T07:49:18;4.88;;;2.83;;
5054;SDS011;13829;48.990;8.346;2023-07-20T07:51:45;4.40;;;2.63;;
5054;SDS011;13829;48.990;8.346;2023-07-20T07:54:12;4.80;;;2.40;;
5054;SDS011;13829;48.990;8.346;2023-07-20T07:56:39;3.83;;;2.40;;
5054;SDS011;13829;48.990;8.346;2023-07-20T07:59:06;7.68;;;2.60;;
5054;SDS011;13829;48.990;8.346;2023-07-20T08:01:33;3.42;;;1.95;;
5054;SDS011;13829;48.990;8.346;2023-07-20T08:04:00;4.13;;;2.20;;
5054;SDS011;13829;48.990;8.346;2023-07-20T08:06:28;3.70;;;2.20;;
5054;SDS011;13829;48.990;8.346;2023-07-20T08:08:56;6.80;;;2.40;;
5054;SDS011;13829;48.990;8.346;2023-07-20T08:11:23;2.80;;;2.10;;
5054;SDS011;13829;48.990;8.346;2023-07-20T08:13:50;7.45;;;2.30;;
5054;SDS011;13829;48.990;8.346;2023-07-20T08:16:17;5.57;;;2.22;;
5054;SDS011;13829;48.990;8.346;2023-07-20T08:18:44;3.92;;;2.40;;
5054;SDS011;13829;48.990;8.346;2023-07-20T08:21:11;2.78;;;2.45;;
5054;SDS011;13829;48.990;8.346;2023-07-20T08:23:39;3.85;;;2.03;;
5054;SDS011;13829;48.990;8.346;2023-07-20T08:26:06;3.63;;;2.35;;
5054;SDS011;13829;48.990;8.346;2023-07-20T08:28:33;3.60;;;1.90;;
5054;SDS011;13829;48.990;8.346;2023-07-20T08:31:01;4.90;;;2.25;;
5054;SDS011;13829;48.990;8.346;2023-07-20T08:33:28;7.05;;;2.53;;
5054;SDS011;13829;48.990;8.346;2023-07-20T08:35:58;4.55;;;2.08;;
5054;SDS011;13829;48.990;8.346;2023-07-20T08:38:26;4.53;;;2.25;;
5054;SDS011;13829;48.990;8.346;2023-07-20T08:40:54;4.05;;;2.10;;
5054;SDS011;13829;48.990;8.346;2023-07-20T08:43:22;5.65;;;2.53;;
5054;SDS011;13829;48.990;8.346;2023-07-20T08:45:50;7.35;;;2.10;;
5054;SDS011;13829;48.990;8.346;2023-07-20T08:48:20;2.55;;;2.00;;
5054;SDS011;13829;48.990;8.346;2023-07-20T08:50:48;5.85;;;2.15;;
5054;SDS011;13829;48.990;8.346;2023-07-20T08:53:17;5.68;;;1.85;;
5054;SDS011;13829;48.990;8.346;2023-07-20T08:55:45;3.72;;;1.90;;
5054;SDS011;13829;48.990;8.346;2023-07-20T08:58:15;4.60;;;1.90;;
5054;SDS011;13829;48.990;8.346;2023-07-20T09:00:43;2.00;;;1.73;;
5054;SDS011;13829;48.990;8.346;2023-07-20T09:03:11;3.22;;;1.92;;
5054;SDS011;13829;48.990;8.346;2023-07-20T09:05:40;2.60;;;1.67;;
5054;SDS011;13829;48.990;8.346;2023-07-20T09:08:07;4.90;;;2.00;;
5054;SDS011;13829;48.990;8.346;2023-07-20T09:10:34;5.13;;;2.28;;
5054;SDS011;13829;48.990;8.346;2023-07-20T09:13:01;7.25;;;2.22;;
5054;SDS011;13829;48.990;8.346;2023-07-20T09:15:29;3.00;;;1.88;;
5054;SDS011;13829;48.990;8.346;2023-07-20T09:17:58;4.53;;;2.28;;
5054;SDS011;13829;48.990;8.346;2023-07-20T09:20:28;6.43;;;2.00;;
5054;SDS011;13829;48.990;8.346;2023-07-20T09:22:59;3.13;;;2.00;;
5054;SDS011;13829;48.990;8.346;2023-07-20T09:25:31;2.97;;;1.83;;
5054;SDS011;13829;48.990;8.346;2023-07-20T09:27:59;4.18;;;1.77;;
5054;SDS011;13829;48.990;8.346;2023-07-20T09:30:30;3.92;;;2.00;;
5054;SDS011;13829;48.990;8.346;2023-07-20T09:32:57;4.78;;;1.60;;
5054;SDS011;13829;48.990;8.346;2023-07-20T09:35:25;2.70;;;1.30;;
5054;SDS011;13829;48.990;8.346;2023-07-20T09:37:54;1.85;;;1.63;;
5054;SDS011;13829;48.990;8.346;2023-07-20T09:40:25;4.43;;;1.77;;
5054;SDS011;13829;48.990;8.346;2023-07-20T09:42:53;2.30;;;1.52;;
5054;SDS011;13829;48.990;8.346;2023-07-20T09:45:27;4.15;;;1.95;;
5054;SDS011;13829;48.990;8.346;2023-07-20T09:48:03;6.38;;;2.10;;
5054;SDS011;13829;48.990;8.346;2023-07-20T09:50:31;3.67;;;1.92;;
5054;SDS011;13829;48.990;8.346;2023-07-20T09:52:58;4.53;;;1.70;;
5054;SDS011;13829;48.990;8.346;2023-07-20T09:55:27;2.67;;;1.85;;
5054;SDS011;13829;48.990;8.346;2023-07-20T09:57:55;4.93;;;1.67;;
5054;SDS011;13829;48.990;8.346;2023-07-20T10:00:23;2.90;;;1.75;;
5054;SDS011;13829;48.990;8.346;2023-07-20T10:02:51;3.53;;;1.50;;
5054;SDS011;13829;48.990;8.346;2023-07-20T10:05:22;2.15;;;1.50;;
5054;SDS011;13829;48.990;8.346;2023-07-20T10:07:51;3.45;;;1.80;;
5054;SDS011;13829;48.990;8.346;2023-07-20T10:10:20;3.00;;;1.80;;
5054;SDS011;13829;48.990;8.346;2023-07-20T10:12:47;2.47;;;1.50;;
5054;SDS011;13829;48.990;8.346;2023-07-20T10:15:16;3.13;;;1.80;;
5054;SDS011;13829;48.990;8.346;2023-07-20T10:17:56;2.45;;;1.50;;
5054;SDS011;13829;48.990;8.346;2023-07-20T10:20:28;3.10;;;1.80;;
5054;SDS011;13829;48.990;8.346;2023-07-20T10:22:59;3.10;;;1.77;;
5054;SDS011;13829;48.990;8.346;2023-07-20T10:25:27;3.97;;;2.00;;
5054;SDS011;13829;48.990;8.346;2023-07-20T10:27:56;1.95;;;1.38;;
5054;SDS011;13829;48.990;8.346;2023-07-20T10:30:24;4.53;;;1.85;;
5054;SDS011;13829;48.990;8.346;2023-07-20T10:32:54;3.30;;;1.77;;
5054;SDS011;13829;48.990;8.346;2023-07-20T10:35:21;1.63;;;1.50;;
5054;SDS011;13829;48.990;8.346;2023-07-20T10:37:49;3.13;;;1.70;;
5054;SDS011;13829;48.990;8.346;2023-07-20T10:40:28;2.60;;;1.75;;
5054;SDS011;13829;48.990;8.346;2023-07-20T10:43:01;3.28;;;1.67;;
5054;SDS011;13829;48.990;8.346;2023-07-20T10:45:35;3.40;;;1.80;;
5054;SDS011;13829;48.990;8.346;2023-07-20T10:48:17;3.67;;;1.92;;
5054;SDS011;13829;48.990;8.346;2023-07-20T10:50:46;2.67;;;1.70;;
5054;SDS011;13829;48.990;8.346;2023-07-20T10:53:38;2.38;;;1.67;;
5054;SDS011;13829;48.990;8.346;2023-07-20T10:56:06;3.28;;;1.85;;
5054;SDS011;13829;48.990;8.346;2023-07-20T10:58:34;3.65;;;2.00;;
5054;SDS011;13829;48.990;8.346;2023-07-20T11:01:01;1.95;;;1.40;;
5054;SDS011;13829;48.990;8.346;2023-07-20T11:03:33;4.13;;;2.03;;
5054;SDS011;13829;48.990;8.346;2023-07-20T11:09:10;4.60;;;1.70;;
5054;SDS011;13829;48.990;8.346;2023-07-20T11:11:40;2.90;;;1.83;;
5054;SDS011;13829;48.990;8.346;2023-07-20T11:14:09;3.00;;;1.30;;
5054;SDS011;13829;48.990;8.346;2023-07-20T11:16:46;1.85;;;1.30;;
5054;SDS011;13829;48.990;8.346;2023-07-20T11:19:17;3.70;;;1.55;;
5054;SDS011;13829;48.990;8.346;2023-07-20T11:21:49;2.63;;;1.52;;
5054;SDS011;13829;48.990;8.346;2023-07-20T11:24:18;2.97;;;1.58;;
5054;SDS011;13829;48.990;8.346;2023-07-20T11:26:45;3.47;;;1.33;;
5054;SDS011;13829;48.990;8.346;2023-07-20T11:29:15;1.90;;;1.27;;
5054;SDS011;13829;48.990;8.346;2023-07-20T11:31:44;2.38;;;1.27;;
5054;SDS011;13829;48.990;8.346;2023-07-20T11:34:13;1.55;;;1.20;;
5054;SDS011;13829;48.990;8.346;2023-07-20T11:36:43;3.28;;;1.67;;
5054;SDS011;13829;48.990;8.346;2023-07-20T11:39:12;3.92;;;1.70;;
5054;SDS011;13829;48.990;8.346;2023-07-20T11:41:43;3.38;;;1.58;;
5054;SDS011;13829;48.990;8.346;2023-07-20T11:44:13;1.20;;;1.10;;
5054;SDS011;13829;48.990;8.346;2023-07-20T11:46:42;1.92;;;1.38;;
5054;SDS011;13829;48.990;8.346;2023-07-20T11:49:10;3.65;;;1.35;;
5054;SDS011;13829;48.990;8.346;2023-07-20T11:51:38;1.58;;;1.40;;
5054;SDS011;13829;48.990;8.346;2023-07-20T11:54:08;1.63;;;1.30;;
5054;SDS011;13829;48.990;8.346;2023-07-20T11:56:36;2.70;;;1.55;;
5054;SDS011;13829;48.990;8.346;2023-07-20T11:59:07;1.98;;;1.15;;
5054;SDS011;13829;48.990;8.346;2023-07-20T12:01:34;2.25;;;1.13;;
5054;SDS011;13829;48.990;8.346;2023-07-20T12:04:02;2.35;;;1.73;;
5054;SDS011;13829;48.990;8.346;2023-07-20T12:06:31;1.40;;;1.20;;
5054;SDS011;13829;48.990;8.346;2023-07-20T12:08:59;2.10;;;1.52;;
5054;SDS011;13829;48.990;8.346;2023-07-20T12:11:33;2.45;;;1.33;;
5054;SDS011;13829;48.990;8.346;2023-07-20T12:14:03;1.63;;;1.42;;
5054;SDS011;13829;48.990;8.346;2023-07-20T12:16:32;3.45;;;1.20;;
5054;SDS011;13829;48.990;8.346;2023-07-20T12:19:00;2.90;;;1.52;;
5054;SDS011;13829;48.990;8.346;2023-07-20T12:21:28;2.38;;;1.42;;
5054;SDS011;13829;48.990;8.346;2023-07-20T12:23:55;2.63;;;1.30;;
5054;SDS011;13829;48.990;8.346;2023-07-20T12:26:23;1.90;;;1.20;;
5054;SDS011;13829;48.990;8.346;2023-07-20T12:28:52;1.88;;;1.40;;
5054;SDS011;13829;48.990;8.346;2023-07-20T12:31:19;2.15;;;1.67;;
5054;SDS011;13829;48.990;8.346;2023-07-20T12:33:47;1.33;;;1.00;;
5054;SDS011;13829;48.990;8.346;2023-07-20T12:36:14;1.92;;;1.42;;
5054;SDS011;13829;48.990;8.346;2023-07-20T12:38:42;1.60;;;1.27;;
5054;SDS011;13829;48.990;8.346;2023-07-20T12:41:09;3.45;;;1.27;;
5054;SDS011;13829;48.990;8.346;2023-07-20T12:43:39;4.10;;;1.20;;
5054;SDS011;13829;48.990;8.346;2023-07-20T12:46:07;1.10;;;1.00;;
5054;SDS011;13829;48.990;8.346;2023-07-20T12:48:36;1.95;;;1.33;;
5054;SDS011;13829;48.990;8.346;2023-07-20T12:51:05;2.28;;;1.02;;
5054;SDS011;13829;48.990;8.346;2023-07-20T12:53:33;3.10;;;1.30;;
5054;SDS011;13829;48.990;8.346;2023-07-20T12:56:00;2.33;;;1.30;;
5054;SDS011;13829;48.990;8.346;2023-07-20T12:58:31;1.20;;;1.10;;
5054;SDS011;13829;48.990;8.346;2023-07-20T13:00:58;1.92;;;1.25;;
5054;SDS011;13829;48.990;8.346;2023-07-20T13:03:26;2.00;;;1.10;;
5054;SDS011;13829;48.990;8.346;2023-07-20T13:05:53;1.92;;;1.15;;
5054;SDS011;13829;48.990;8.346;2023-07-20T13:08:20;2.80;;;1.17;;
5054;SDS011;13829;48.990;8.346;2023-07-20T13:10:50;1.55;;;1.30;;
5054;SDS011;13829;48.990;8.346;2023-07-20T13:13:17;2.05;;;1.10;;
5054;SDS011;13829;48.990;8.346;2023-07-20T13:15:45;1.23;;;0.90;;
5054;SDS011;13829;48.990;8.346;2023-07-20T13:18:13;4.18;;;1.20;;
5054;SDS011;13829;48.990;8.346;2023-07-20T13:20:41;1.75;;;1.38;;
5054;SDS011;13829;48.990;8.346;2023-07-20T13:23:08;2.00;;;1.35;;
5054;SDS011;13829;48.990;8.346;2023-07-20T13:25:35;2.30;;;1.40;;
5054;SDS011;13829;48.990;8.346;2023-07-20T13:28:03;1.40;;;1.30;;
5054;SDS011;13829;48.990;8.346;2023-07-20T13:30:31;2.63;;;1.25;;
5054;SDS011;13829;48.990;8.346;2023-07-20T13:32:58;2.13;;;1.08;;
5054;SDS011;13829;48.990;8.346;2023-07-20T13:35:25;2.13;;;1.35;;
5054;SDS011;13829;48.990;8.346;2023-07-20T13:37:53;1.55;;;1.30;;
5054;SDS011;13829;48.990;8.346;2023-07-20T13:40:21;1.13;;;0.98;;
5054;SDS011;13829;48.990;8.346;2023-07-20T13:42:48;1.52;;;1.20;;
5054;SDS011;13829;48.990;8.346;2023-07-20T13:45:15;2.25;;;1.20;;
5054;SDS011;13829;48.990;8.346;2023-07-20T13:47:42;1.60;;;1.25;;
5054;SDS011;13829;48.990;8.346;2023-07-20T13:50:09;2.42;;;1.05;;
5054;SDS011;13829;48.990;8.346;2023-07-20T13:52:36;1.60;;;1.20;;
5054;SDS011;13829;48.990;8.346;2023-07-20T13:55:05;2.63;;;1.25;;
5054;SDS011;13829;48.990;8.346;2023-07-20T13:57:33;1.42;;;1.02;;
5054;SDS011;13829;48.990;8.346;2023-07-20T14:00:00;2.05;;;1.20;;
5054;SDS011;13829;48.990;8.346;2023-07-20T14:02:29;1.33;;;1.00;;
5054;SDS011;13829;48.990;8.346;2023-07-20T14:04:55;2.50;;;1.35;;
5054;SDS011;13829;48.990;8.346;2023-07-20T14:07:23;2.78;;;1.23;;
5054;SDS011;13829;48.990;8.346;2023-07-20T14:09:50;1.83;;;1.10;;
5054;SDS011;13829;48.990;8.346;2023-07-20T14:12:18;1.42;;;1.17;;
5054;SDS011;13829;48.990;8.346;2023-07-20T14:14:45;1.52;;;1.25;;
5054;SDS011;13829;48.990;8.346;2023-07-20T14:17:12;1.92;;;1.20;;
5054;SDS011;13829;48.990;8.346;2023-07-20T14:19:39;2.72;;;1.23;;
5054;SDS011;13829;48.990;8.346;2023-07-20T14:22:06;1.75;;;1.35;;
5054;SDS011;13829;48.990;8.346;2023-07-20T14:24:33;1.50;;;1.30;;
5054;SDS011;13829;48.990;8.346;2023-07-20T14:27:00;1.65;;;1.15;;
5054;SDS011;13829;48.990;8.346;2023-07-20T14:29:28;1.27;;;1.00;;
5054;SDS011;13829;48.990;8.346;2023-07-20T14:31:56;1.77;;;1.10;;
5054;SDS011;13829;48.990;8.346;2023-07-20T14:34:24;2.20;;;1.30;;
5054;SDS011;13829;48.990;8.346;2023-07-20T14:36:51;1.63;;;1.50;;
5054;SDS011;13829;48.990;8.346;2023-07-20T14:39:18;1.42;;;1.27;;
5054;SDS011;13829;48.990;8.346;2023-07-20T14:41:45;1.83;;;1.00;;
5054;SDS011;13829;48.990;8.346;2023-07-20T14:44:12;2.35;;;1.40;;
5054;SDS011;13829;48.990;8.346;2023-07-20T14:46:41;2.30;;;1.50;;
5054;SDS011;13829;48.990;8.346;2023-07-20T14:49:08;1.48;;;1.15;;
5054;SDS011;13829;48.990;8.346;2023-07-20T14:51:35;4.72;;;1.40;;
5054;SDS011;13829;48.990;8.346;2023-07-20T14:54:08;2.13;;;1.10;;
5054;SDS011;13829;48.990;8.346;2023-07-20T14:56:35;1.70;;;1.17;;
5054;SDS011;13829;48.990;8.346;2023-07-20T14:59:04;1.42;;;1.30;;
5054;SDS011;13829;48.990;8.346;2023-07-20T15:01:31;2.30;;;1.30;;
5054;SDS011;13829;48.990;8.346;2023-07-20T15:04:00;1.38;;;1.00;;
5054;SDS011;13829;48.990;8.346;2023-07-20T15:06:26;3.78;;;1.35;;
5054;SDS011;13829;48.990;8.346;2023-07-20T15:08:55;1.20;;;1.10;;
5054;SDS011;13829;48.990;8.346;2023-07-20T15:11:22;1.65;;;1.10;;